METAR Data
IDs: Format: Raw Decoded Include TAF

Data at: 0829 UTC 18 Sep 2021

TXKF 180755Z 20009KT 9999 -SHRA FEW013 SCT091 BKN150 BKN300 25/23 Q1018
TXKF 180739Z 21010KT 9999 -SHRA SCT013 BKN100 BKN300 25/22 Q1018
TXKF 180717Z 24015KT 9999 VCSH BKN014TCU BKN077 OVC300 26/23 Q1018 RMK TCU W
TXKF 180655Z 18009KT 9999 VCSH FEW020 SCT086 BKN300 25/23 Q1018 RMK TCU DIST SW
TXKF 180635Z 17009KT 9999 VCSH FEW015 SCT063 BKN300 25/23 Q1018 RMK TCU DIST NE
TXKF 180555Z 21010KT 8000 -SHRA FEW009TCU BKN018 BKN067 BKN200 25/23 Q1019 RMK TCU S

TAF TXKF 180534Z 1806/1906 17014KT 9999 VCSH FEW017 SCT055
  PROB30
  TEMPO 1806/1906 21020KT 3200 SHRA SCT010 BKN014CB